sensor_id;sensor_type;location;lat;lon;timestamp;temperature;humidity
28530;DHT22;15737;49.760;6.632;2023-04-01T00:00:13;8.80;99.90
28530;DHT22;15737;49.760;6.632;2023-04-01T00:02:39;8.80;99.90
28530;DHT22;15737;49.760;6.632;2023-04-01T00:05:06;8.90;99.90
28530;DHT22;15737;49.760;6.632;2023-04-01T00:07:32;9.00;99.90
28530;DHT22;15737;49.760;6.632;2023-04-01T00:09:58;9.10;99.90
28530;DHT22;15737;49.760;6.632;2023-04-01T00:12:23;9.10;99.90
28530;DHT22;15737;49.760;6.632;2023-04-01T00:14:50;9.10;99.90
28530;DHT22;15737;49.760;6.632;2023-04-01T00:17:16;9.20;99.90
28530;DHT22;15737;49.760;6.632;2023-04-01T00:19:44;9.20;99.90
28530;DHT22;15737;49.760;6.632;2023-04-01T00:22:10;9.30;99.90
28530;DHT22;15737;49.760;6.632;2023-04-01T00:24:37;9.30;99.90
28530;DHT22;15737;49.760;6.632;2023-04-01T00:27:04;9.30;99.90
28530;DHT22;15737;49.760;6.632;2023-04-01T00:29:30;9.40;99.90
28530;DHT22;15737;49.760;6.632;2023-04-01T00:31:57;9.40;99.90
28530;DHT22;15737;49.760;6.632;2023-04-01T00:34:22;9.50;99.90
28530;DHT22;15737;49.760;6.632;2023-04-01T00:36:49;9.50;99.90
28530;DHT22;15737;49.760;6.632;2023-04-01T00:39:15;9.50;99.90
28530;DHT22;15737;49.760;6.632;2023-04-01T00:41:41;9.50;99.90
28530;DHT22;15737;49.760;6.632;2023-04-01T00:44:19;9.50;99.90
28530;DHT22;15737;49.760;6.632;2023-04-01T00:46:45;9.50;99.90
28530;DHT22;15737;49.760;6.632;2023-04-01T00:49:11;9.50;99.90
28530;DHT22;15737;49.760;6.632;2023-04-01T00:51:38;9.50;99.90
28530;DHT22;15737;49.760;6.632;2023-04-01T00:54:04;9.50;99.90
28530;DHT22;15737;49.760;6.632;2023-04-01T00:56:34;9.60;99.90
28530;DHT22;15737;49.760;6.632;2023-04-01T00:59:06;9.60;99.90
28530;DHT22;15737;49.760;6.632;2023-04-01T01:01:34;9.60;99.90
28530;DHT22;15737;49.760;6.632;2023-04-01T01:04:01;9.60;99.90
28530;DHT22;15737;49.760;6.632;2023-04-01T01:12:44;9.60;99.90
28530;DHT22;15737;49.760;6.632;2023-04-01T01:20:53;9.60;99.90
28530;DHT22;15737;49.760;6.632;2023-04-01T01:23:37;9.60;99.90
28530;DHT22;15737;49.760;6.632;2023-04-01T01:26:25;9.70;99.90
28530;DHT22;15737;49.760;6.632;2023-04-01T01:29:16;9.60;99.90
28530;DHT22;15737;49.760;6.632;2023-04-01T01:35:11;9.70;99.90
28530;DHT22;15737;49.760;6.632;2023-04-01T01:37:41;9.70;99.90
28530;DHT22;15737;49.760;6.632;2023-04-01T01:40:09;9.70;99.90
28530;DHT22;15737;49.760;6.632;2023-04-01T01:42:39;9.70;99.90
28530;DHT22;15737;49.760;6.632;2023-04-01T01:45:07;9.70;99.90
28530;DHT22;15737;49.760;6.632;2023-04-01T01:47:34;9.70;99.90
28530;DHT22;15737;49.760;6.632;2023-04-01T01:50:01;9.70;99.90
28530;DHT22;15737;49.760;6.632;2023-04-01T01:52:28;9.60;99.90
28530;DHT22;15737;49.760;6.632;2023-04-01T01:54:56;9.60;99.90
28530;DHT22;15737;49.760;6.632;2023-04-01T01:57:26;9.50;99.90
28530;DHT22;15737;49.760;6.632;2023-04-01T02:00:00;9.40;99.90
28530;DHT22;15737;49.760;6.632;2023-04-01T02:02:27;9.30;99.90
28530;DHT22;15737;49.760;6.632;2023-04-01T02:04:56;9.10;99.90
28530;DHT22;15737;49.760;6.632;2023-04-01T02:07:29;9.00;99.90
28530;DHT22;15737;49.760;6.632;2023-04-01T02:09:56;8.80;99.90
28530;DHT22;15737;49.760;6.632;2023-04-01T02:12:22;8.70;99.90
28530;DHT22;15737;49.760;6.632;2023-04-01T02:15:07;8.60;99.90
28530;DHT22;15737;49.760;6.632;2023-04-01T02:17:39;8.50;99.90
28530;DHT22;15737;49.760;6.632;2023-04-01T02:20:13;8.50;99.90
28530;DHT22;15737;49.760;6.632;2023-04-01T02:23:16;8.50;99.90
28530;DHT22;15737;49.760;6.632;2023-04-01T02:25:36;8.40;99.90
28530;DHT22;15737;49.760;6.632;2023-04-01T02:28:05;8.40;99.90
28530;DHT22;15737;49.760;6.632;2023-04-01T02:30:47;8.40;99.90
28530;DHT22;15737;49.760;6.632;2023-04-01T02:33:13;8.40;99.90
28530;DHT22;15737;49.760;6.632;2023-04-01T02:35:39;8.40;99.90
28530;DHT22;15737;49.760;6.632;2023-04-01T02:38:05;8.30;99.90
28530;DHT22;15737;49.760;6.632;2023-04-01T02:40:59;8.30;99.90
28530;DHT22;15737;49.760;6.632;2023-04-01T02:43:26;8.30;99.90
28530;DHT22;15737;49.760;6.632;2023-04-01T02:45:52;8.30;99.90
28530;DHT22;15737;49.760;6.632;2023-04-01T02:48:17;8.30;99.90
28530;DHT22;15737;49.760;6.632;2023-04-01T02:50:43;8.30;99.90
28530;DHT22;15737;49.760;6.632;2023-04-01T02:53:08;8.30;99.90
28530;DHT22;15737;49.760;6.632;2023-04-01T02:55:34;8.30;99.90
28530;DHT22;15737;49.760;6.632;2023-04-01T02:58:16;8.30;99.90
28530;DHT22;15737;49.760;6.632;2023-04-01T03:00:42;8.30;99.90
28530;DHT22;15737;49.760;6.632;2023-04-01T03:03:08;8.20;99.90
28530;DHT22;15737;49.760;6.632;2023-04-01T03:05:33;8.30;99.90
28530;DHT22;15737;49.760;6.632;2023-04-01T03:07:59;8.30;99.90
28530;DHT22;15737;49.760;6.632;2023-04-01T03:10:25;8.30;99.90
28530;DHT22;15737;49.760;6.632;2023-04-01T03:12:50;8.30;99.90
28530;DHT22;15737;49.760;6.632;2023-04-01T03:15:16;8.40;99.90
28530;DHT22;15737;49.760;6.632;2023-04-01T03:17:42;8.40;99.90
28530;DHT22;15737;49.760;6.632;2023-04-01T03:20:09;8.40;99.90
28530;DHT22;15737;49.760;6.632;2023-04-01T03:22:36;8.40;99.90
28530;DHT22;15737;49.760;6.632;2023-04-01T03:25:23;8.40;99.90
28530;DHT22;15737;49.760;6.632;2023-04-01T03:27:48;8.50;99.90
28530;DHT22;15737;49.760;6.632;2023-04-01T03:30:14;8.50;99.90
28530;DHT22;15737;49.760;6.632;2023-04-01T03:32:40;8.50;99.90
28530;DHT22;15737;49.760;6.632;2023-04-01T03:35:05;8.50;99.90
28530;DHT22;15737;49.760;6.632;2023-04-01T03:37:31;8.40;99.90
28530;DHT22;15737;49.760;6.632;2023-04-01T03:42:30;8.40;99.90
28530;DHT22;15737;49.760;6.632;2023-04-01T03:44:56;8.30;99.90
28530;DHT22;15737;49.760;6.632;2023-04-01T03:47:22;8.30;99.90
28530;DHT22;15737;49.760;6.632;2023-04-01T03:49:47;8.30;99.90
28530;DHT22;15737;49.760;6.632;2023-04-01T03:52:13;8.30;99.90
28530;DHT22;15737;49.760;6.632;2023-04-01T03:54:38;8.30;99.90
28530;DHT22;15737;49.760;6.632;2023-04-01T03:57:04;8.30;99.90
28530;DHT22;15737;49.760;6.632;2023-04-01T03:59:30;8.20;99.90
28530;DHT22;15737;49.760;6.632;2023-04-01T04:01:56;8.20;99.90
28530;DHT22;15737;49.760;6.632;2023-04-01T04:04:21;8.10;99.90
28530;DHT22;15737;49.760;6.632;2023-04-01T04:07:02;8.10;99.90
28530;DHT22;15737;49.760;6.632;2023-04-01T04:09:29;8.20;99.90
28530;DHT22;15737;49.760;6.632;2023-04-01T04:11:55;8.10;99.90
28530;DHT22;15737;49.760;6.632;2023-04-01T04:14:20;8.10;99.90
28530;DHT22;15737;49.760;6.632;2023-04-01T04:16:46;8.00;99.90
28530;DHT22;15737;49.760;6.632;2023-04-01T04:19:11;8.00;99.90
28530;DHT22;15737;49.760;6.632;2023-04-01T04:21:36;8.00;99.90
28530;DHT22;15737;49.760;6.632;2023-04-01T04:24:02;8.00;99.90
28530;DHT22;15737;49.760;6.632;2023-04-01T04:26:28;8.00;99.90
28530;DHT22;15737;49.760;6.632;2023-04-01T04:28:54;8.00;99.90
28530;DHT22;15737;49.760;6.632;2023-04-01T04:31:21;7.90;99.90
28530;DHT22;15737;49.760;6.632;2023-04-01T04:33:52;7.90;99.90
28530;DHT22;15737;49.760;6.632;2023-04-01T04:36:19;7.90;99.90
28530;DHT22;15737;49.760;6.632;2023-04-01T04:38:45;7.90;99.90
28530;DHT22;15737;49.760;6.632;2023-04-01T04:41:11;7.90;99.90
28530;DHT22;15737;49.760;6.632;2023-04-01T04:43:39;7.80;99.90
28530;DHT22;15737;49.760;6.632;2023-04-01T04:46:06;7.90;99.90
28530;DHT22;15737;49.760;6.632;2023-04-01T04:48:32;7.90;99.90
28530;DHT22;15737;49.760;6.632;2023-04-01T04:50:57;7.90;99.90
28530;DHT22;15737;49.760;6.632;2023-04-01T04:53:23;7.90;99.90
28530;DHT22;15737;49.760;6.632;2023-04-01T04:58:16;7.90;99.90
28530;DHT22;15737;49.760;6.632;2023-04-01T05:00:42;7.90;99.90
28530;DHT22;15737;49.760;6.632;2023-04-01T05:03:08;7.90;99.90
28530;DHT22;15737;49.760;6.632;2023-04-01T05:05:34;7.90;99.90
28530;DHT22;15737;49.760;6.632;2023-04-01T05:07:59;7.90;99.90
28530;DHT22;15737;49.760;6.632;2023-04-01T05:10:25;7.90;99.90
28530;DHT22;15737;49.760;6.632;2023-04-01T05:12:50;8.00;99.90
28530;DHT22;15737;49.760;6.632;2023-04-01T05:15:16;8.00;99.90
28530;DHT22;15737;49.760;6.632;2023-04-01T05:17:42;8.00;99.90
28530;DHT22;15737;49.760;6.632;2023-04-01T05:20:07;8.00;99.90
28530;DHT22;15737;49.760;6.632;2023-04-01T05:22:33;8.00;99.90
28530;DHT22;15737;49.760;6.632;2023-04-01T05:24:58;8.00;99.90
28530;DHT22;15737;49.760;6.632;2023-04-01T05:27:24;8.10;99.90
28530;DHT22;15737;49.760;6.632;2023-04-01T05:29:49;8.00;99.90
28530;DHT22;15737;49.760;6.632;2023-04-01T05:32:15;8.00;99.90
28530;DHT22;15737;49.760;6.632;2023-04-01T05:34:41;8.00;99.90
28530;DHT22;15737;49.760;6.632;2023-04-01T05:37:07;8.00;99.90
28530;DHT22;15737;49.760;6.632;2023-04-01T05:39:46;8.00;99.90
28530;DHT22;15737;49.760;6.632;2023-04-01T05:42:12;8.00;99.90
28530;DHT22;15737;49.760;6.632;2023-04-01T05:44:37;8.10;99.90
28530;DHT22;15737;49.760;6.632;2023-04-01T05:47:04;8.10;99.90
28530;DHT22;15737;49.760;6.632;2023-04-01T05:49:30;8.10;99.90
28530;DHT22;15737;49.760;6.632;2023-04-01T05:51:56;8.10;99.90
28530;DHT22;15737;49.760;6.632;2023-04-01T05:54:41;8.10;99.90
28530;DHT22;15737;49.760;6.632;2023-04-01T05:57:06;8.10;99.90
28530;DHT22;15737;49.760;6.632;2023-04-01T05:59:32;8.20;99.90
28530;DHT22;15737;49.760;6.632;2023-04-01T06:01:57;8.20;99.90
28530;DHT22;15737;49.760;6.632;2023-04-01T06:04:23;8.20;99.90
28530;DHT22;15737;49.760;6.632;2023-04-01T06:06:49;8.20;99.90
28530;DHT22;15737;49.760;6.632;2023-04-01T06:09:32;8.30;99.90
28530;DHT22;15737;49.760;6.632;2023-04-01T06:28:39;8.20;99.90
28530;DHT22;15737;49.760;6.632;2023-04-01T06:51:28;8.40;99.90
28530;DHT22;15737;49.760;6.632;2023-04-01T06:54:24;8.50;99.90
28530;DHT22;15737;49.760;6.632;2023-04-01T06:56:58;8.50;99.90
28530;DHT22;15737;49.760;6.632;2023-04-01T06:59:33;8.50;99.90
28530;DHT22;15737;49.760;6.632;2023-04-01T07:04:40;8.60;99.90
28530;DHT22;15737;49.760;6.632;2023-04-01T07:07:46;8.60;99.90
28530;DHT22;15737;49.760;6.632;2023-04-01T07:12:49;8.70;99.90
28530;DHT22;15737;49.760;6.632;2023-04-01T07:17:52;8.70;99.90
28530;DHT22;15737;49.760;6.632;2023-04-01T07:20:30;8.80;99.90
28530;DHT22;15737;49.760;6.632;2023-04-01T07:22:59;8.90;99.90
28530;DHT22;15737;49.760;6.632;2023-04-01T07:25:39;9.00;99.90
28530;DHT22;15737;49.760;6.632;2023-04-01T07:28:12;9.10;99.90
28530;DHT22;15737;49.760;6.632;2023-04-01T07:33:25;9.10;99.90
28530;DHT22;15737;49.760;6.632;2023-04-01T07:36:23;9.10;99.90
28530;DHT22;15737;49.760;6.632;2023-04-01T07:44:59;9.00;99.90
28530;DHT22;15737;49.760;6.632;2023-04-01T07:48:08;9.00;99.90
28530;DHT22;15737;49.760;6.632;2023-04-01T07:51:23;9.00;99.90
28530;DHT22;15737;49.760;6.632;2023-04-01T07:53:36;9.00;99.90
28530;DHT22;15737;49.760;6.632;2023-04-01T07:56:14;9.00;99.90
28530;DHT22;15737;49.760;6.632;2023-04-01T07:58:57;9.00;99.90
28530;DHT22;15737;49.760;6.632;2023-04-01T08:01:47;9.00;99.90
28530;DHT22;15737;49.760;6.632;2023-04-01T08:09:43;9.00;99.90
28530;DHT22;15737;49.760;6.632;2023-04-01T08:23:15;9.20;99.90
28530;DHT22;15737;49.760;6.632;2023-04-01T08:26:07;9.20;99.90
28530;DHT22;15737;49.760;6.632;2023-04-01T08:31:26;9.30;99.90
28530;DHT22;15737;49.760;6.632;2023-04-01T08:33:55;9.50;99.90
28530;DHT22;15737;49.760;6.632;2023-04-01T08:36:36;9.60;99.90
28530;DHT22;15737;49.760;6.632;2023-04-01T08:39:18;9.70;99.90
28530;DHT22;15737;49.760;6.632;2023-04-01T08:53:39;9.70;99.90
28530;DHT22;15737;49.760;6.632;2023-04-01T08:59:31;9.80;99.90
28530;DHT22;15737;49.760;6.632;2023-04-01T09:04:35;10.10;99.90
28530;DHT22;15737;49.760;6.632;2023-04-01T09:07:22;10.20;99.90
28530;DHT22;15737;49.760;6.632;2023-04-01T09:09:58;10.30;99.90
28530;DHT22;15737;49.760;6.632;2023-04-01T09:12:54;10.40;99.90
28530;DHT22;15737;49.760;6.632;2023-04-01T09:26:35;10.10;99.90
28530;DHT22;15737;49.760;6.632;2023-04-01T09:29:39;10.00;99.90
28530;DHT22;15737;49.760;6.632;2023-04-01T09:37:51;9.80;99.90
28530;DHT22;15737;49.760;6.632;2023-04-01T09:44:12;9.90;99.90
28530;DHT22;15737;49.760;6.632;2023-04-01T09:46:51;9.80;99.90
28530;DHT22;15737;49.760;6.632;2023-04-01T09:52:12;9.90;99.90
28530;DHT22;15737;49.760;6.632;2023-04-01T09:54:56;10.00;99.90
28530;DHT22;15737;49.760;6.632;2023-04-01T10:03:13;10.20;99.90
28530;DHT22;15737;49.760;6.632;2023-04-01T10:09:07;10.20;99.90
28530;DHT22;15737;49.760;6.632;2023-04-01T10:11:51;10.10;99.90
28530;DHT22;15737;49.760;6.632;2023-04-01T10:17:25;10.20;99.90
28530;DHT22;15737;49.760;6.632;2023-04-01T10:20:39;10.10;99.90
28530;DHT22;15737;49.760;6.632;2023-04-01T10:25:55;10.20;99.90
28530;DHT22;15737;49.760;6.632;2023-04-01T10:34:26;10.60;99.90
28530;DHT22;15737;49.760;6.632;2023-04-01T10:37:23;11.00;99.90
28530;DHT22;15737;49.760;6.632;2023-04-01T10:45:49;10.90;99.90
28530;DHT22;15737;49.760;6.632;2023-04-01T10:51:25;10.60;99.90
28530;DHT22;15737;49.760;6.632;2023-04-01T10:54:17;10.70;99.90
28530;DHT22;15737;49.760;6.632;2023-04-01T11:11:02;10.50;99.90
28530;DHT22;15737;49.760;6.632;2023-04-01T11:14:10;10.50;99.90
28530;DHT22;15737;49.760;6.632;2023-04-01T11:17:13;10.40;99.90
28530;DHT22;15737;49.760;6.632;2023-04-01T11:20:39;10.20;99.90
28530;DHT22;15737;49.760;6.632;2023-04-01T11:40:14;10.40;99.90
28530;DHT22;15737;49.760;6.632;2023-04-01T11:43:12;10.30;99.90
28530;DHT22;15737;49.760;6.632;2023-04-01T11:45:58;10.20;99.90
28530;DHT22;15737;49.760;6.632;2023-04-01T11:51:26;10.20;99.90
28530;DHT22;15737;49.760;6.632;2023-04-01T12:22:17;9.80;99.90
28530;DHT22;15737;49.760;6.632;2023-04-01T12:33:27;10.10;99.90
28530;DHT22;15737;49.760;6.632;2023-04-01T12:36:12;10.20;99.90
28530;DHT22;15737;49.760;6.632;2023-04-01T12:41:32;10.50;99.90
28530;DHT22;15737;49.760;6.632;2023-04-01T12:58:03;10.40;99.90
28530;DHT22;15737;49.760;6.632;2023-04-01T13:06:52;10.20;99.90
28530;DHT22;15737;49.760;6.632;2023-04-01T13:12:28;10.00;99.90
28530;DHT22;15737;49.760;6.632;2023-04-01T13:23:19;10.40;99.90
28530;DHT22;15737;49.760;6.632;2023-04-01T13:28:28;10.40;99.90
28530;DHT22;15737;49.760;6.632;2023-04-01T13:30:58;10.50;99.90
28530;DHT22;15737;49.760;6.632;2023-04-01T13:39:15;10.60;99.90
28530;DHT22;15737;49.760;6.632;2023-04-01T13:41:54;10.50;99.90
28530;DHT22;15737;49.760;6.632;2023-04-01T13:44:26;10.60;99.90
28530;DHT22;15737;49.760;6.632;2023-04-01T13:47:16;10.70;99.90
28530;DHT22;15737;49.760;6.632;2023-04-01T13:52:53;11.10;99.90
28530;DHT22;15737;49.760;6.632;2023-04-01T14:01:32;11.70;99.90
28530;DHT22;15737;49.760;6.632;2023-04-01T14:07:38;12.10;99.90
28530;DHT22;15737;49.760;6.632;2023-04-01T14:10:19;12.10;99.90
28530;DHT22;15737;49.760;6.632;2023-04-01T14:15:48;12.00;99.90
28530;DHT22;15737;49.760;6.632;2023-04-01T14:23:41;12.30;99.90
28530;DHT22;15737;49.760;6.632;2023-04-01T14:29:11;12.20;99.90
28530;DHT22;15737;49.760;6.632;2023-04-01T14:31:59;12.10;99.90
28530;DHT22;15737;49.760;6.632;2023-04-01T14:40:27;11.90;99.90
28530;DHT22;15737;49.760;6.632;2023-04-01T14:45:59;12.20;99.90
28530;DHT22;15737;49.760;6.632;2023-04-01T14:51:36;11.90;99.90
28530;DHT22;15737;49.760;6.632;2023-04-01T14:54:34;11.50;99.90
28530;DHT22;15737;49.760;6.632;2023-04-01T14:57:13;11.20;99.90
28530;DHT22;15737;49.760;6.632;2023-04-01T14:59:41;11.20;99.90
28530;DHT22;15737;49.760;6.632;2023-04-01T15:05:10;11.60;99.90
28530;DHT22;15737;49.760;6.632;2023-04-01T15:08:05;11.60;99.90
28530;DHT22;15737;49.760;6.632;2023-04-01T15:16:27;11.70;99.90
28530;DHT22;15737;49.760;6.632;2023-04-01T15:22:18;12.10;99.90
28530;DHT22;15737;49.760;6.632;2023-04-01T15:28:07;11.70;99.90
28530;DHT22;15737;49.760;6.632;2023-04-01T15:30:44;11.50;99.90
28530;DHT22;15737;49.760;6.632;2023-04-01T15:36:43;11.20;99.90
28530;DHT22;15737;49.760;6.632;2023-04-01T15:42:03;10.80;99.90
28530;DHT22;15737;49.760;6.632;2023-04-01T15:55:26;10.40;99.90
28530;DHT22;15737;49.760;6.632;2023-04-01T16:06:47;10.40;99.90
28530;DHT22;15737;49.760;6.632;2023-04-01T16:12:19;10.20;99.90
28530;DHT22;15737;49.760;6.632;2023-04-01T16:15:24;10.30;99.90
28530;DHT22;15737;49.760;6.632;2023-04-01T16:18:21;10.30;99.90
28530;DHT22;15737;49.760;6.632;2023-04-01T16:21:00;10.30;99.90
28530;DHT22;15737;49.760;6.632;2023-04-01T16:23:37;10.30;99.90
28530;DHT22;15737;49.760;6.632;2023-04-01T16:26:35;10.10;99.90
28530;DHT22;15737;49.760;6.632;2023-04-01T16:29:24;10.00;99.90
28530;DHT22;15737;49.760;6.632;2023-04-01T16:32:16;9.80;99.90
28530;DHT22;15737;49.760;6.632;2023-04-01T16:37:54;9.60;99.90
28530;DHT22;15737;49.760;6.632;2023-04-01T16:40:42;9.60;99.90
28530;DHT22;15737;49.760;6.632;2023-04-01T16:43:14;9.60;99.90
28530;DHT22;15737;49.760;6.632;2023-04-01T16:51:18;9.40;99.90
28530;DHT22;15737;49.760;6.632;2023-04-01T16:53:50;9.40;99.90
28530;DHT22;15737;49.760;6.632;2023-04-01T16:56:24;9.30;99.90
28530;DHT22;15737;49.760;6.632;2023-04-01T16:59:37;9.30;99.90
28530;DHT22;15737;49.760;6.632;2023-04-01T17:01:57;9.30;99.90
28530;DHT22;15737;49.760;6.632;2023-04-01T17:12:38;9.30;99.90
28530;DHT22;15737;49.760;6.632;2023-04-01T17:18:12;9.30;99.90
28530;DHT22;15737;49.760;6.632;2023-04-01T17:20:43;9.30;99.90
28530;DHT22;15737;49.760;6.632;2023-04-01T17:23:18;9.30;99.90
28530;DHT22;15737;49.760;6.632;2023-04-01T17:32:11;9.30;99.90
28530;DHT22;15737;49.760;6.632;2023-04-01T17:35:00;9.20;99.90
28530;DHT22;15737;49.760;6.632;2023-04-01T17:37:33;9.20;99.90
28530;DHT22;15737;49.760;6.632;2023-04-01T17:40:26;9.20;99.90
28530;DHT22;15737;49.760;6.632;2023-04-01T17:43:22;9.10;99.90
28530;DHT22;15737;49.760;6.632;2023-04-01T17:49:26;9.00;99.90
28530;DHT22;15737;49.760;6.632;2023-04-01T17:52:07;9.00;99.90
28530;DHT22;15737;49.760;6.632;2023-04-01T17:55:15;8.90;99.90
28530;DHT22;15737;49.760;6.632;2023-04-01T17:58:17;8.90;99.90
28530;DHT22;15737;49.760;6.632;2023-04-01T18:01:08;8.90;99.90
28530;DHT22;15737;49.760;6.632;2023-04-01T18:12:35;8.90;99.90
28530;DHT22;15737;49.760;6.632;2023-04-01T18:15:16;8.80;99.90
28530;DHT22;15737;49.760;6.632;2023-04-01T18:17:54;8.80;99.90
28530;DHT22;15737;49.760;6.632;2023-04-01T18:20:33;8.80;99.90
28530;DHT22;15737;49.760;6.632;2023-04-01T18:23:12;8.90;99.90
28530;DHT22;15737;49.760;6.632;2023-04-01T18:25:42;8.80;99.90
28530;DHT22;15737;49.760;6.632;2023-04-01T18:31:04;8.80;99.90
28530;DHT22;15737;49.760;6.632;2023-04-01T18:33:56;8.80;99.90
28530;DHT22;15737;49.760;6.632;2023-04-01T18:44:47;8.90;99.90
28530;DHT22;15737;49.760;6.632;2023-04-01T18:47:25;8.80;99.90
28530;DHT22;15737;49.760;6.632;2023-04-01T18:57:54;8.90;99.90
28530;DHT22;15737;49.760;6.632;2023-04-01T19:00:35;9.00;99.90
28530;DHT22;15737;49.760;6.632;2023-04-01T19:05:44;9.00;99.90
28530;DHT22;15737;49.760;6.632;2023-04-01T19:08:18;9.00;99.90
28530;DHT22;15737;49.760;6.632;2023-04-01T19:11:09;9.00;99.90
28530;DHT22;15737;49.760;6.632;2023-04-01T19:14:13;9.00;99.90
28530;DHT22;15737;49.760;6.632;2023-04-01T19:19:56;9.10;99.90
28530;DHT22;15737;49.760;6.632;2023-04-01T19:25:53;9.10;99.90
28530;DHT22;15737;49.760;6.632;2023-04-01T19:31:39;9.10;99.90
28530;DHT22;15737;49.760;6.632;2023-04-01T19:36:53;9.10;99.90
28530;DHT22;15737;49.760;6.632;2023-04-01T19:44:48;9.10;99.90
28530;DHT22;15737;49.760;6.632;2023-04-01T19:50:27;9.00;99.90
28530;DHT22;15737;49.760;6.632;2023-04-01T19:52:58;9.10;99.90
28530;DHT22;15737;49.760;6.632;2023-04-01T19:58:12;8.90;99.90
28530;DHT22;15737;49.760;6.632;2023-04-01T20:00:43;8.90;99.90
28530;DHT22;15737;49.760;6.632;2023-04-01T20:11:34;8.80;99.90
28530;DHT22;15737;49.760;6.632;2023-04-01T20:14:14;8.80;99.90
28530;DHT22;15737;49.760;6.632;2023-04-01T20:17:01;8.90;99.90
28530;DHT22;15737;49.760;6.632;2023-04-01T20:28:11;8.90;99.90
28530;DHT22;15737;49.760;6.632;2023-04-01T20:41:46;8.90;99.90
28530;DHT22;15737;49.760;6.632;2023-04-01T20:44:46;8.90;99.90
28530;DHT22;15737;49.760;6.632;2023-04-01T20:50:31;8.90;99.90
28530;DHT22;15737;49.760;6.632;2023-04-01T20:56:32;8.80;99.90
28530;DHT22;15737;49.760;6.632;2023-04-01T21:07:33;8.80;99.90
28530;DHT22;15737;49.760;6.632;2023-04-01T21:15:26;8.80;99.90
28530;DHT22;15737;49.760;6.632;2023-04-01T21:20:46;8.80;99.90
28530;DHT22;15737;49.760;6.632;2023-04-01T21:26:19;8.80;99.90
28530;DHT22;15737;49.760;6.632;2023-04-01T21:34:10;8.70;99.90
28530;DHT22;15737;49.760;6.632;2023-04-01T21:36:46;8.60;99.90
28530;DHT22;15737;49.760;6.632;2023-04-01T21:42:25;8.50;99.90
28530;DHT22;15737;49.760;6.632;2023-04-01T21:48:07;8.50;99.90
28530;DHT22;15737;49.760;6.632;2023-04-01T21:51:02;8.50;99.90
28530;DHT22;15737;49.760;6.632;2023-04-01T21:59:48;8.40;99.90
28530;DHT22;15737;49.760;6.632;2023-04-01T22:09:10;8.30;99.90
28530;DHT22;15737;49.760;6.632;2023-04-01T22:12:14;8.30;99.90
28530;DHT22;15737;49.760;6.632;2023-04-01T22:15:08;8.30;99.90
28530;DHT22;15737;49.760;6.632;2023-04-01T22:17:45;8.20;99.90
28530;DHT22;15737;49.760;6.632;2023-04-01T22:20:28;8.20;99.90
28530;DHT22;15737;49.760;6.632;2023-04-01T22:23:10;8.20;99.90
28530;DHT22;15737;49.760;6.632;2023-04-01T22:28:39;8.10;99.90
28530;DHT22;15737;49.760;6.632;2023-04-01T22:31:08;8.10;99.90
28530;DHT22;15737;49.760;6.632;2023-04-01T22:34:00;8.10;99.90
28530;DHT22;15737;49.760;6.632;2023-04-01T22:36:53;8.10;99.90
28530;DHT22;15737;49.760;6.632;2023-04-01T22:40:08;8.10;99.90
28530;DHT22;15737;49.760;6.632;2023-04-01T22:50:58;8.10;99.90
28530;DHT22;15737;49.760;6.632;2023-04-01T22:53:57;8.10;99.90
28530;DHT22;15737;49.760;6.632;2023-04-01T22:56:36;8.10;99.90
28530;DHT22;15737;49.760;6.632;2023-04-01T23:02:22;8.10;99.90
28530;DHT22;15737;49.760;6.632;2023-04-01T23:04:57;8.10;99.90
28530;DHT22;15737;49.760;6.632;2023-04-01T23:07:52;8.10;99.90
28530;DHT22;15737;49.760;6.632;2023-04-01T23:10:27;8.10;99.90
28530;DHT22;15737;49.760;6.632;2023-04-01T23:13:03;8.00;99.90
28530;DHT22;15737;49.760;6.632;2023-04-01T23:15:33;8.00;99.90
28530;DHT22;15737;49.760;6.632;2023-04-01T23:20:53;8.00;99.90
28530;DHT22;15737;49.760;6.632;2023-04-01T23:23:33;8.00;99.90
28530;DHT22;15737;49.760;6.632;2023-04-01T23:29:01;8.00;99.90
28530;DHT22;15737;49.760;6.632;2023-04-01T23:31:34;8.00;99.90
28530;DHT22;15737;49.760;6.632;2023-04-01T23:34:25;7.90;99.90
28530;DHT22;15737;49.760;6.632;2023-04-01T23:37:14;7.90;99.90
28530;DHT22;15737;49.760;6.632;2023-04-01T23:40:02;8.00;99.90
28530;DHT22;15737;49.760;6.632;2023-04-01T23:42:32;7.90;99.90
28530;DHT22;15737;49.760;6.632;2023-04-01T23:45:05;7.90;99.90
28530;DHT22;15737;49.760;6.632;2023-04-01T23:47:39;7.90;99.90
28530;DHT22;15737;49.760;6.632;2023-04-01T23:50:23;7.80;99.90
28530;DHT22;15737;49.760;6.632;2023-04-01T23:53:00;7.80;99.90
28530;DHT22;15737;49.760;6.632;2023-04-01T23:55:30;7.80;99.90
